sensor_id;sensor_type;location;lat;lon;timestamp;P1;durP1;ratioP1;P2;durP2;ratioP2
19032;SDS011;9649;51.042;13.804;2023-05-07T00:04:51;16.58;;;10.85;;
19032;SDS011;9649;51.042;13.804;2023-05-07T00:09:55;15.73;;;10.85;;
19032;SDS011;9649;51.042;13.804;2023-05-07T00:14:58;17.45;;;9.95;;
19032;SDS011;9649;51.042;13.804;2023-05-07T00:20:01;15.90;;;10.88;;
19032;SDS011;9649;51.042;13.804;2023-05-07T00:25:06;17.67;;;11.82;;
19032;SDS011;9649;51.042;13.804;2023-05-07T00:30:10;18.75;;;12.82;;
19032;SDS011;9649;51.042;13.804;2023-05-07T00:35:13;19.80;;;12.68;;
19032;SDS011;9649;51.042;13.804;2023-05-07T00:40:17;19.10;;;12.30;;
19032;SDS011;9649;51.042;13.804;2023-05-07T00:45:20;20.60;;;13.48;;
19032;SDS011;9649;51.042;13.804;2023-05-07T00:50:23;21.02;;;12.90;;
19032;SDS011;9649;51.042;13.804;2023-05-07T00:55:27;19.33;;;12.70;;
19032;SDS011;9649;51.042;13.804;2023-05-07T01:00:31;19.83;;;13.55;;
19032;SDS011;9649;51.042;13.804;2023-05-07T01:05:34;21.73;;;13.05;;
19032;SDS011;9649;51.042;13.804;2023-05-07T01:10:38;19.00;;;12.60;;
19032;SDS011;9649;51.042;13.804;2023-05-07T01:15:44;15.93;;;11.17;;
19032;SDS011;9649;51.042;13.804;2023-05-07T01:20:47;16.10;;;11.00;;
19032;SDS011;9649;51.042;13.804;2023-05-07T01:25:54;18.08;;;11.13;;
19032;SDS011;9649;51.042;13.804;2023-05-07T01:30:58;18.05;;;11.90;;
19032;SDS011;9649;51.042;13.804;2023-05-07T01:36:04;18.08;;;11.48;;
19032;SDS011;9649;51.042;13.804;2023-05-07T01:41:11;19.50;;;11.97;;
19032;SDS011;9649;51.042;13.804;2023-05-07T01:46:14;17.10;;;11.90;;
19032;SDS011;9649;51.042;13.804;2023-05-07T01:51:17;18.37;;;12.03;;
19032;SDS011;9649;51.042;13.804;2023-05-07T01:56:23;20.00;;;12.57;;
19032;SDS011;9649;51.042;13.804;2023-05-07T02:01:27;19.10;;;13.10;;
19032;SDS011;9649;51.042;13.804;2023-05-07T02:06:29;19.70;;;12.70;;
19032;SDS011;9649;51.042;13.804;2023-05-07T02:11:34;15.98;;;12.38;;
19032;SDS011;9649;51.042;13.804;2023-05-07T02:16:36;21.55;;;13.77;;
19032;SDS011;9649;51.042;13.804;2023-05-07T02:21:39;16.43;;;11.83;;
19032;SDS011;9649;51.042;13.804;2023-05-07T02:26:43;19.37;;;12.90;;
19032;SDS011;9649;51.042;13.804;2023-05-07T02:31:46;20.20;;;12.40;;
19032;SDS011;9649;51.042;13.804;2023-05-07T02:36:51;17.43;;;12.40;;
19032;SDS011;9649;51.042;13.804;2023-05-07T02:41:56;16.55;;;10.80;;
19032;SDS011;9649;51.042;13.804;2023-05-07T02:46:58;13.70;;;9.27;;
19032;SDS011;9649;51.042;13.804;2023-05-07T02:52:01;12.03;;;8.77;;
19032;SDS011;9649;51.042;13.804;2023-05-07T02:57:05;13.53;;;8.60;;
19032;SDS011;9649;51.042;13.804;2023-05-07T03:02:08;11.73;;;8.40;;
19032;SDS011;9649;51.042;13.804;2023-05-07T03:07:11;13.13;;;8.67;;
19032;SDS011;9649;51.042;13.804;2023-05-07T03:12:15;12.33;;;8.50;;
19032;SDS011;9649;51.042;13.804;2023-05-07T03:17:17;16.57;;;9.30;;
19032;SDS011;9649;51.042;13.804;2023-05-07T03:22:20;15.17;;;9.57;;
19032;SDS011;9649;51.042;13.804;2023-05-07T03:27:24;15.60;;;9.33;;
19032;SDS011;9649;51.042;13.804;2023-05-07T03:32:27;14.50;;;9.40;;
19032;SDS011;9649;51.042;13.804;2023-05-07T03:37:30;16.33;;;9.83;;
19032;SDS011;9649;51.042;13.804;2023-05-07T03:42:34;18.23;;;10.97;;
19032;SDS011;9649;51.042;13.804;2023-05-07T03:47:37;17.77;;;10.70;;
19032;SDS011;9649;51.042;13.804;2023-05-07T03:52:40;20.13;;;12.13;;
19032;SDS011;9649;51.042;13.804;2023-05-07T03:57:44;22.00;;;12.90;;
19032;SDS011;9649;51.042;13.804;2023-05-07T04:02:46;22.67;;;13.10;;
19032;SDS011;9649;51.042;13.804;2023-05-07T04:07:49;22.53;;;13.20;;
19032;SDS011;9649;51.042;13.804;2023-05-07T04:12:53;21.40;;;12.20;;
19032;SDS011;9649;51.042;13.804;2023-05-07T04:17:56;20.07;;;12.47;;
19032;SDS011;9649;51.042;13.804;2023-05-07T04:22:59;20.53;;;12.87;;
19032;SDS011;9649;51.042;13.804;2023-05-07T04:28:03;19.07;;;11.63;;
19032;SDS011;9649;51.042;13.804;2023-05-07T04:33:07;20.17;;;12.07;;
19032;SDS011;9649;51.042;13.804;2023-05-07T04:38:09;19.23;;;11.33;;
19032;SDS011;9649;51.042;13.804;2023-05-07T04:43:13;17.07;;;9.80;;
19032;SDS011;9649;51.042;13.804;2023-05-07T04:48:17;15.90;;;10.00;;
19032;SDS011;9649;51.042;13.804;2023-05-07T04:53:21;16.83;;;9.90;;
19032;SDS011;9649;51.042;13.804;2023-05-07T04:58:25;16.03;;;10.47;;
19032;SDS011;9649;51.042;13.804;2023-05-07T05:03:28;19.33;;;11.30;;
19032;SDS011;9649;51.042;13.804;2023-05-07T05:08:31;20.00;;;12.17;;
19032;SDS011;9649;51.042;13.804;2023-05-07T05:13:35;21.93;;;12.63;;
19032;SDS011;9649;51.042;13.804;2023-05-07T05:18:38;19.80;;;12.23;;
19032;SDS011;9649;51.042;13.804;2023-05-07T05:23:41;18.50;;;10.23;;
19032;SDS011;9649;51.042;13.804;2023-05-07T05:28:45;18.43;;;10.93;;
19032;SDS011;9649;51.042;13.804;2023-05-07T05:33:48;17.10;;;10.67;;
19032;SDS011;9649;51.042;13.804;2023-05-07T05:38:50;12.90;;;8.40;;
19032;SDS011;9649;51.042;13.804;2023-05-07T05:43:54;14.63;;;8.17;;
19032;SDS011;9649;51.042;13.804;2023-05-07T05:48:57;11.98;;;7.53;;
19032;SDS011;9649;51.042;13.804;2023-05-07T05:54:00;11.93;;;7.57;;
19032;SDS011;9649;51.042;13.804;2023-05-07T05:59:04;10.45;;;6.72;;
19032;SDS011;9649;51.042;13.804;2023-05-07T06:04:07;12.32;;;6.78;;
19032;SDS011;9649;51.042;13.804;2023-05-07T06:09:10;10.68;;;6.85;;
19032;SDS011;9649;51.042;13.804;2023-05-07T06:14:14;10.38;;;7.32;;
19032;SDS011;9649;51.042;13.804;2023-05-07T06:19:16;10.90;;;6.53;;
19032;SDS011;9649;51.042;13.804;2023-05-07T06:24:24;10.73;;;6.50;;
19032;SDS011;9649;51.042;13.804;2023-05-07T06:29:28;8.83;;;5.73;;
19032;SDS011;9649;51.042;13.804;2023-05-07T06:34:33;8.10;;;5.40;;
19032;SDS011;9649;51.042;13.804;2023-05-07T06:39:36;8.38;;;5.47;;
19032;SDS011;9649;51.042;13.804;2023-05-07T06:44:40;8.23;;;5.63;;
19032;SDS011;9649;51.042;13.804;2023-05-07T06:49:43;9.50;;;6.77;;
19032;SDS011;9649;51.042;13.804;2023-05-07T06:54:45;8.73;;;5.87;;
19032;SDS011;9649;51.042;13.804;2023-05-07T06:59:50;14.93;;;8.97;;
19032;SDS011;9649;51.042;13.804;2023-05-07T07:04:52;12.45;;;7.50;;
19032;SDS011;9649;51.042;13.804;2023-05-07T07:09:55;11.18;;;6.88;;
19032;SDS011;9649;51.042;13.804;2023-05-07T07:14:59;10.27;;;6.40;;
19032;SDS011;9649;51.042;13.804;2023-05-07T07:20:03;8.33;;;5.77;;
19032;SDS011;9649;51.042;13.804;2023-05-07T07:25:08;7.75;;;5.10;;
19032;SDS011;9649;51.042;13.804;2023-05-07T07:30:13;6.83;;;5.00;;
19032;SDS011;9649;51.042;13.804;2023-05-07T07:35:16;6.95;;;4.78;;
19032;SDS011;9649;51.042;13.804;2023-05-07T07:40:19;5.73;;;4.23;;
19032;SDS011;9649;51.042;13.804;2023-05-07T07:45:23;5.47;;;4.00;;
19032;SDS011;9649;51.042;13.804;2023-05-07T07:50:26;5.60;;;3.95;;
19032;SDS011;9649;51.042;13.804;2023-05-07T07:55:45;5.35;;;3.95;;
19032;SDS011;9649;51.042;13.804;2023-05-07T08:00:49;5.15;;;3.80;;
19032;SDS011;9649;51.042;13.804;2023-05-07T08:05:52;5.63;;;3.72;;
19032;SDS011;9649;51.042;13.804;2023-05-07T08:10:55;4.70;;;3.40;;
19032;SDS011;9649;51.042;13.804;2023-05-07T08:15:59;4.47;;;3.33;;
19032;SDS011;9649;51.042;13.804;2023-05-07T08:21:01;4.68;;;3.90;;
19032;SDS011;9649;51.042;13.804;2023-05-07T08:26:04;4.00;;;3.55;;
19032;SDS011;9649;51.042;13.804;2023-05-07T08:31:08;5.63;;;3.60;;
19032;SDS011;9649;51.042;13.804;2023-05-07T08:36:11;4.45;;;3.53;;
19032;SDS011;9649;51.042;13.804;2023-05-07T08:41:14;4.25;;;3.60;;
19032;SDS011;9649;51.042;13.804;2023-05-07T08:46:18;5.47;;;3.65;;
19032;SDS011;9649;51.042;13.804;2023-05-07T08:51:22;6.03;;;4.15;;
19032;SDS011;9649;51.042;13.804;2023-05-07T08:56:25;7.90;;;5.10;;
19032;SDS011;9649;51.042;13.804;2023-05-07T09:01:29;6.85;;;5.15;;
19032;SDS011;9649;51.042;13.804;2023-05-07T09:06:32;7.47;;;5.18;;
19032;SDS011;9649;51.042;13.804;2023-05-07T09:11:35;9.80;;;5.30;;
19032;SDS011;9649;51.042;13.804;2023-05-07T09:16:39;9.18;;;5.80;;
19032;SDS011;9649;51.042;13.804;2023-05-07T09:21:42;8.90;;;5.10;;
19032;SDS011;9649;51.042;13.804;2023-05-07T09:26:45;7.75;;;5.25;;
19032;SDS011;9649;51.042;13.804;2023-05-07T09:31:49;8.55;;;5.60;;
19032;SDS011;9649;51.042;13.804;2023-05-07T09:36:52;7.65;;;5.43;;
19032;SDS011;9649;51.042;13.804;2023-05-07T09:41:56;6.82;;;5.07;;
19032;SDS011;9649;51.042;13.804;2023-05-07T09:47:00;8.95;;;5.20;;
19032;SDS011;9649;51.042;13.804;2023-05-07T09:52:06;6.18;;;4.80;;
19032;SDS011;9649;51.042;13.804;2023-05-07T09:57:11;7.95;;;4.93;;
19032;SDS011;9649;51.042;13.804;2023-05-07T10:02:17;8.85;;;6.22;;
19032;SDS011;9649;51.042;13.804;2023-05-07T10:07:21;8.25;;;5.70;;
19032;SDS011;9649;51.042;13.804;2023-05-07T10:12:24;7.40;;;5.78;;
19032;SDS011;9649;51.042;13.804;2023-05-07T10:17:29;8.60;;;6.03;;
19032;SDS011;9649;51.042;13.804;2023-05-07T10:22:36;9.25;;;5.85;;
19032;SDS011;9649;51.042;13.804;2023-05-07T10:27:41;7.13;;;5.20;;
19032;SDS011;9649;51.042;13.804;2023-05-07T10:32:47;10.52;;;5.60;;
19032;SDS011;9649;51.042;13.804;2023-05-07T10:37:52;6.15;;;5.00;;
19032;SDS011;9649;51.042;13.804;2023-05-07T10:42:55;8.40;;;5.40;;
19032;SDS011;9649;51.042;13.804;2023-05-07T10:48:08;6.10;;;5.20;;
19032;SDS011;9649;51.042;13.804;2023-05-07T10:53:29;6.47;;;5.07;;
19032;SDS011;9649;51.042;13.804;2023-05-07T10:58:32;6.05;;;5.03;;
19032;SDS011;9649;51.042;13.804;2023-05-07T11:04:12;4.70;;;4.20;;
19032;SDS011;9649;51.042;13.804;2023-05-07T11:09:18;5.85;;;4.50;;
19032;SDS011;9649;51.042;13.804;2023-05-07T11:19:49;6.43;;;4.90;;
19032;SDS011;9649;51.042;13.804;2023-05-07T11:24:53;5.70;;;4.32;;
19032;SDS011;9649;51.042;13.804;2023-05-07T11:29:55;6.70;;;4.68;;
19032;SDS011;9649;51.042;13.804;2023-05-07T11:35:00;6.50;;;4.30;;
19032;SDS011;9649;51.042;13.804;2023-05-07T11:40:03;7.03;;;4.97;;
19032;SDS011;9649;51.042;13.804;2023-05-07T11:45:08;6.90;;;4.63;;
19032;SDS011;9649;51.042;13.804;2023-05-07T11:50:13;5.05;;;4.53;;
19032;SDS011;9649;51.042;13.804;2023-05-07T11:55:17;6.00;;;4.65;;
19032;SDS011;9649;51.042;13.804;2023-05-07T12:00:21;5.75;;;4.45;;
19032;SDS011;9649;51.042;13.804;2023-05-07T12:05:25;7.82;;;4.55;;
19032;SDS011;9649;51.042;13.804;2023-05-07T12:10:28;5.95;;;4.68;;
19032;SDS011;9649;51.042;13.804;2023-05-07T12:15:30;6.13;;;4.03;;
19032;SDS011;9649;51.042;13.804;2023-05-07T12:20:35;7.05;;;4.90;;
19032;SDS011;9649;51.042;13.804;2023-05-07T12:25:38;7.35;;;5.20;;
19032;SDS011;9649;51.042;13.804;2023-05-07T12:30:44;6.05;;;4.60;;
19032;SDS011;9649;51.042;13.804;2023-05-07T12:35:49;5.45;;;4.53;;
19032;SDS011;9649;51.042;13.804;2023-05-07T12:40:53;6.78;;;3.85;;
19032;SDS011;9649;51.042;13.804;2023-05-07T12:45:57;5.05;;;3.60;;
19032;SDS011;9649;51.042;13.804;2023-05-07T12:51:03;4.05;;;3.50;;
19032;SDS011;9649;51.042;13.804;2023-05-07T12:56:08;4.95;;;3.53;;
19032;SDS011;9649;51.042;13.804;2023-05-07T13:01:11;9.07;;;4.10;;
19032;SDS011;9649;51.042;13.804;2023-05-07T13:06:18;4.93;;;3.80;;
19032;SDS011;9649;51.042;13.804;2023-05-07T13:11:20;5.28;;;3.70;;
19032;SDS011;9649;51.042;13.804;2023-05-07T13:16:23;3.42;;;3.13;;
19032;SDS011;9649;51.042;13.804;2023-05-07T13:21:27;5.07;;;3.70;;
19032;SDS011;9649;51.042;13.804;2023-05-07T13:26:31;6.57;;;3.72;;
19032;SDS011;9649;51.042;13.804;2023-05-07T13:31:34;4.22;;;3.63;;
19032;SDS011;9649;51.042;13.804;2023-05-07T13:36:39;3.80;;;3.40;;
19032;SDS011;9649;51.042;13.804;2023-05-07T13:41:43;4.85;;;3.72;;
19032;SDS011;9649;51.042;13.804;2023-05-07T13:46:46;4.65;;;3.65;;
19032;SDS011;9649;51.042;13.804;2023-05-07T13:51:50;7.90;;;3.10;;
19032;SDS011;9649;51.042;13.804;2023-05-07T13:56:52;3.80;;;3.33;;
19032;SDS011;9649;51.042;13.804;2023-05-07T14:01:55;3.50;;;3.08;;
19032;SDS011;9649;51.042;13.804;2023-05-07T14:06:59;4.07;;;3.17;;
19032;SDS011;9649;51.042;13.804;2023-05-07T14:12:02;2.97;;;2.70;;
19032;SDS011;9649;51.042;13.804;2023-05-07T14:17:05;3.70;;;2.70;;
19032;SDS011;9649;51.042;13.804;2023-05-07T14:22:10;2.97;;;2.38;;
19032;SDS011;9649;51.042;13.804;2023-05-07T14:27:15;3.08;;;2.60;;
19032;SDS011;9649;51.042;13.804;2023-05-07T14:32:18;6.68;;;2.65;;
19032;SDS011;9649;51.042;13.804;2023-05-07T14:37:22;3.20;;;2.58;;
19032;SDS011;9649;51.042;13.804;2023-05-07T14:42:25;3.03;;;2.30;;
19032;SDS011;9649;51.042;13.804;2023-05-07T14:47:28;5.97;;;2.70;;
19032;SDS011;9649;51.042;13.804;2023-05-07T14:52:32;2.92;;;2.63;;
19032;SDS011;9649;51.042;13.804;2023-05-07T14:57:35;3.85;;;2.60;;
19032;SDS011;9649;51.042;13.804;2023-05-07T15:02:37;3.72;;;2.90;;
19032;SDS011;9649;51.042;13.804;2023-05-07T15:07:42;3.33;;;2.90;;
19032;SDS011;9649;51.042;13.804;2023-05-07T15:12:46;5.85;;;3.53;;
19032;SDS011;9649;51.042;13.804;2023-05-07T15:17:49;5.00;;;4.00;;
19032;SDS011;9649;51.042;13.804;2023-05-07T15:22:53;8.85;;;4.13;;
19032;SDS011;9649;51.042;13.804;2023-05-07T15:27:55;7.25;;;5.15;;
19032;SDS011;9649;51.042;13.804;2023-05-07T15:32:58;6.20;;;4.22;;
19032;SDS011;9649;51.042;13.804;2023-05-07T15:38:02;5.10;;;3.55;;
19032;SDS011;9649;51.042;13.804;2023-05-07T15:43:07;7.38;;;5.47;;
19032;SDS011;9649;51.042;13.804;2023-05-07T15:48:10;26.83;;;19.65;;
19032;SDS011;9649;51.042;13.804;2023-05-07T15:53:14;5.10;;;4.30;;
19032;SDS011;9649;51.042;13.804;2023-05-07T15:58:17;5.05;;;3.70;;
19032;SDS011;9649;51.042;13.804;2023-05-07T16:03:21;6.65;;;4.13;;
19032;SDS011;9649;51.042;13.804;2023-05-07T16:08:26;4.45;;;3.88;;
19032;SDS011;9649;51.042;13.804;2023-05-07T16:13:28;6.65;;;4.05;;
19032;SDS011;9649;51.042;13.804;2023-05-07T16:18:31;5.80;;;4.32;;
19032;SDS011;9649;51.042;13.804;2023-05-07T16:23:37;5.28;;;3.92;;
19032;SDS011;9649;51.042;13.804;2023-05-07T16:28:39;7.32;;;4.40;;
19032;SDS011;9649;51.042;13.804;2023-05-07T16:33:42;10.32;;;4.50;;
19032;SDS011;9649;51.042;13.804;2023-05-07T16:38:46;6.32;;;4.60;;
19032;SDS011;9649;51.042;13.804;2023-05-07T16:43:49;5.20;;;4.20;;
19032;SDS011;9649;51.042;13.804;2023-05-07T16:48:52;7.63;;;4.55;;
19032;SDS011;9649;51.042;13.804;2023-05-07T16:53:56;4.32;;;3.65;;
19032;SDS011;9649;51.042;13.804;2023-05-07T16:58:58;4.95;;;3.95;;
19032;SDS011;9649;51.042;13.804;2023-05-07T17:04:01;4.65;;;4.15;;
19032;SDS011;9649;51.042;13.804;2023-05-07T17:09:05;6.40;;;4.38;;
19032;SDS011;9649;51.042;13.804;2023-05-07T17:14:09;5.15;;;4.18;;
19032;SDS011;9649;51.042;13.804;2023-05-07T17:19:12;8.38;;;4.38;;
19032;SDS011;9649;51.042;13.804;2023-05-07T17:24:16;4.45;;;3.65;;
19032;SDS011;9649;51.042;13.804;2023-05-07T17:29:19;6.30;;;4.25;;
19032;SDS011;9649;51.042;13.804;2023-05-07T17:34:22;7.18;;;4.07;;
19032;SDS011;9649;51.042;13.804;2023-05-07T17:39:26;5.97;;;4.00;;
19032;SDS011;9649;51.042;13.804;2023-05-07T17:44:29;5.15;;;4.13;;
19032;SDS011;9649;51.042;13.804;2023-05-07T17:49:31;11.10;;;4.53;;
19032;SDS011;9649;51.042;13.804;2023-05-07T17:54:36;7.43;;;4.40;;
19032;SDS011;9649;51.042;13.804;2023-05-07T17:59:39;7.15;;;4.63;;
19032;SDS011;9649;51.042;13.804;2023-05-07T18:04:42;6.07;;;4.13;;
19032;SDS011;9649;51.042;13.804;2023-05-07T18:09:46;6.13;;;4.63;;
19032;SDS011;9649;51.042;13.804;2023-05-07T18:14:48;9.02;;;4.32;;
19032;SDS011;9649;51.042;13.804;2023-05-07T18:19:51;8.70;;;5.20;;
19032;SDS011;9649;51.042;13.804;2023-05-07T18:24:56;7.03;;;5.15;;
19032;SDS011;9649;51.042;13.804;2023-05-07T18:29:59;7.70;;;5.50;;
19032;SDS011;9649;51.042;13.804;2023-05-07T18:35:03;6.53;;;5.27;;
19032;SDS011;9649;51.042;13.804;2023-05-07T18:40:08;8.00;;;5.53;;
19032;SDS011;9649;51.042;13.804;2023-05-07T18:45:12;7.20;;;5.37;;
19032;SDS011;9649;51.042;13.804;2023-05-07T18:50:15;7.47;;;5.50;;
19032;SDS011;9649;51.042;13.804;2023-05-07T18:55:19;7.37;;;6.30;;
19032;SDS011;9649;51.042;13.804;2023-05-07T19:00:22;8.60;;;5.67;;
19032;SDS011;9649;51.042;13.804;2023-05-07T19:05:25;8.20;;;6.20;;
19032;SDS011;9649;51.042;13.804;2023-05-07T19:10:29;8.83;;;5.67;;
19032;SDS011;9649;51.042;13.804;2023-05-07T19:15:31;8.03;;;5.80;;
19032;SDS011;9649;51.042;13.804;2023-05-07T19:20:34;7.83;;;5.73;;
19032;SDS011;9649;51.042;13.804;2023-05-07T19:25:38;7.90;;;6.43;;
19032;SDS011;9649;51.042;13.804;2023-05-07T19:30:41;7.83;;;6.20;;
19032;SDS011;9649;51.042;13.804;2023-05-07T19:35:44;11.23;;;6.50;;
19032;SDS011;9649;51.042;13.804;2023-05-07T19:40:48;7.57;;;6.13;;
19032;SDS011;9649;51.042;13.804;2023-05-07T19:45:54;8.23;;;6.20;;
19032;SDS011;9649;51.042;13.804;2023-05-07T19:50:57;9.43;;;6.50;;
19032;SDS011;9649;51.042;13.804;2023-05-07T19:56:03;9.73;;;5.83;;
19032;SDS011;9649;51.042;13.804;2023-05-07T20:01:06;10.97;;;6.57;;
19032;SDS011;9649;51.042;13.804;2023-05-07T20:06:09;6.50;;;5.43;;
19032;SDS011;9649;51.042;13.804;2023-05-07T20:11:14;7.23;;;6.07;;
19032;SDS011;9649;51.042;13.804;2023-05-07T20:16:17;6.57;;;5.27;;
19032;SDS011;9649;51.042;13.804;2023-05-07T20:21:20;6.67;;;5.43;;
19032;SDS011;9649;51.042;13.804;2023-05-07T20:26:24;6.53;;;5.13;;
19032;SDS011;9649;51.042;13.804;2023-05-07T20:31:27;5.17;;;4.60;;
19032;SDS011;9649;51.042;13.804;2023-05-07T20:36:34;6.67;;;4.37;;
19032;SDS011;9649;51.042;13.804;2023-05-07T20:41:39;8.70;;;4.30;;
19032;SDS011;9649;51.042;13.804;2023-05-07T20:46:41;5.40;;;4.10;;
19032;SDS011;9649;51.042;13.804;2023-05-07T20:51:44;8.57;;;4.17;;
19032;SDS011;9649;51.042;13.804;2023-05-07T20:56:48;5.00;;;4.20;;
19032;SDS011;9649;51.042;13.804;2023-05-07T21:01:51;4.93;;;4.07;;
19032;SDS011;9649;51.042;13.804;2023-05-07T21:06:54;5.37;;;3.90;;
19032;SDS011;9649;51.042;13.804;2023-05-07T21:11:58;7.57;;;5.40;;
19032;SDS011;9649;51.042;13.804;2023-05-07T21:17:01;6.13;;;4.40;;
19032;SDS011;9649;51.042;13.804;2023-05-07T21:22:07;6.17;;;4.37;;
19032;SDS011;9649;51.042;13.804;2023-05-07T21:27:11;7.87;;;4.23;;
19032;SDS011;9649;51.042;13.804;2023-05-07T21:32:14;8.07;;;5.10;;
19032;SDS011;9649;51.042;13.804;2023-05-07T21:37:17;6.10;;;4.00;;
19032;SDS011;9649;51.042;13.804;2023-05-07T21:42:21;7.27;;;4.53;;
19032;SDS011;9649;51.042;13.804;2023-05-07T21:47:24;8.17;;;4.53;;
19032;SDS011;9649;51.042;13.804;2023-05-07T21:52:27;9.20;;;4.63;;
19032;SDS011;9649;51.042;13.804;2023-05-07T21:57:31;5.63;;;3.87;;
19032;SDS011;9649;51.042;13.804;2023-05-07T22:02:34;8.07;;;4.80;;
19032;SDS011;9649;51.042;13.804;2023-05-07T22:07:37;6.13;;;4.40;;
19032;SDS011;9649;51.042;13.804;2023-05-07T22:12:41;6.47;;;4.70;;
19032;SDS011;9649;51.042;13.804;2023-05-07T22:17:43;7.87;;;4.57;;
19032;SDS011;9649;51.042;13.804;2023-05-07T22:22:46;9.07;;;4.30;;
19032;SDS011;9649;51.042;13.804;2023-05-07T22:27:54;6.27;;;4.40;;
19032;SDS011;9649;51.042;13.804;2023-05-07T22:32:56;9.47;;;5.20;;
19032;SDS011;9649;51.042;13.804;2023-05-07T22:37:59;6.90;;;4.83;;
19032;SDS011;9649;51.042;13.804;2023-05-07T22:43:03;7.27;;;5.00;;
19032;SDS011;9649;51.042;13.804;2023-05-07T22:48:06;7.00;;;5.00;;
19032;SDS011;9649;51.042;13.804;2023-05-07T22:53:08;7.80;;;5.20;;
19032;SDS011;9649;51.042;13.804;2023-05-07T22:58:13;6.20;;;4.70;;
19032;SDS011;9649;51.042;13.804;2023-05-07T23:03:15;8.70;;;4.90;;
19032;SDS011;9649;51.042;13.804;2023-05-07T23:08:18;6.83;;;5.03;;
19032;SDS011;9649;51.042;13.804;2023-05-07T23:13:22;6.93;;;5.30;;
19032;SDS011;9649;51.042;13.804;2023-05-07T23:18:25;7.17;;;5.10;;
19032;SDS011;9649;51.042;13.804;2023-05-07T23:23:30;7.40;;;4.80;;
19032;SDS011;9649;51.042;13.804;2023-05-07T23:28:36;9.37;;;5.17;;
19032;SDS011;9649;51.042;13.804;2023-05-07T23:33:39;8.13;;;5.30;;
19032;SDS011;9649;51.042;13.804;2023-05-07T23:38:41;7.50;;;5.07;;
19032;SDS011;9649;51.042;13.804;2023-05-07T23:43:45;8.17;;;5.20;;
19032;SDS011;9649;51.042;13.804;2023-05-07T23:48:48;8.00;;;5.43;;
19032;SDS011;9649;51.042;13.804;2023-05-07T23:53:51;8.73;;;5.20;;
19032;SDS011;9649;51.042;13.804;2023-05-07T23:58:55;7.77;;;5.20;;
